Etusivu
METAR-TAF:

METAR-TAF

Lentoasemat :

Gafsa, Tunisia

Leveyspiiri: 34-25N, Pituuspiiri: 008-49E, korkeus merenpinnasta: 313 m

Tämänhetkinen sää

Tämä raportti tehtiin 54 minuuttia sitten, kello 16.00 UTC
Tuuli 5 kn lounaasta
Lämpötila 17°C
Kosteus 45%
Ilmanpaine 1020 hPa
Näkyvyys 10 km tai enemmän
Muutamia pilviä 3000 ft:n korkeudessa

METAR: DTTF 051600Z 22005KT 9999 FEW030 17/05 Q1020 NOSIG

Aika: 17:54 (16:54 UTC)

Sääennuste

Tämä raportti tehtiin 4 tuntia ja 54 minuuttia sitten, kello 12.00 UTC
Ennuste voimassa 05. päivästä klo 13 UTC - 05. päivään klo 22 UTC
Tuuli 8 kn lännestä
Näkyvyys 10 km tai enemmän
ei pilviä alle 1500 m:ssä eikä cumulonimbus-pilviä
Tulossa
05. päivästä klo 15 UTC - 05. päivään klo 17 UTC
Tuuli 3 kn eri suunnista
Näkyvyys 10 km tai enemmän
Muutamia pilviä 3300 ft:n korkeudessa

TAF: DTTF 051200Z 0513/0522 26008KT CAVOK BECMG 0515/0517 VRB03KT 9999 FEW033

Säähavainnot ja -ennusteet yli 4000 lentoasemalta (METAR- ja TAF-raportit).

Käytössä olevat sääasemat on merkitty karttaan keltaisilla ja punaisilla pisteillä.

Aseta hiiri pisteen päälle nähdäksesi sääaseman nimen.

Klikkaa sitten nähdäksesi säähavainnot ja -ennusteet.

Kartan vaihtaminen: klikkaa mustalla rastilla varustettuja vihreitä pisteitä, niin voit zoomata sisään; viivalla varustettua vihreää pistettä, niin voit zoomata ulos tai vihreitä nuolia, niin pääset viereisille kartoille.


METAR-TAF: